Time;durP1;ratioP1;P1;durP2;ratioP2;P2;SDS_P1;SDS_P2;PMS_P1;PMS_P2;Temp;Humidity;BMP_temperature;BMP_pressure;BME280_temperature;BME280_humidity;BME280_pressure;Samples;Min_cycle;Max_cycle;Signal;HPM_P1;HPM_P2
2023/10/10 00:00:55;;;;;;;31.45;20.90;;;16.30;99.90;;;;;;4959922;28;20417;-81
2023/10/10 00:03:21;;;;;;;30.38;19.65;;;16.30;99.90;;;;;;4967088;28;20426;-80
2023/10/10 00:05:47;;;;;;;29.83;15.90;;;16.30;99.90;;;;;;4964365;28;20567;-81
2023/10/10 00:08:14;;;;;;;22.30;14.32;;;16.20;99.90;;;;;;4960777;28;20121;-81
2023/10/10 00:10:50;;;;;;;36.03;20.25;;;16.30;99.90;;;;;;4963502;28;20544;-80
2023/10/10 00:13:19;;;;;;;33.83;23.17;;;16.30;99.90;;;;;;4964116;28;20042;-79
2023/10/10 00:15:50;;;;;;;26.85;16.17;;;16.20;99.90;;;;;;4943029;28;20030;-80
2023/10/10 00:18:22;;;;;;;31.88;19.02;;;16.20;99.90;;;;;;4958759;28;20030;-80
2023/10/10 00:21:20;;;;;;;28.10;16.73;;;16.20;99.90;;;;;;4963225;28;20060;-80
2023/10/10 00:23:49;;;;;;;32.72;24.52;;;16.30;99.90;;;;;;4968916;28;20509;-80
2023/10/10 00:26:15;;;;;;;28.85;17.30;;;16.30;99.90;;;;;;4975658;28;20414;-80
2023/10/10 00:28:44;;;;;;;39.90;25.02;;;16.20;99.90;;;;;;4982079;28;20046;-80
2023/10/10 00:31:17;;;;;;;36.63;21.60;;;16.20;99.90;;;;;;4965510;28;20033;-80
2023/10/10 00:33:42;;;;;;;20.10;13.25;;;16.20;99.90;;;;;;4961961;28;20168;-80
2023/10/10 00:36:20;;;;;;;27.35;18.52;;;16.20;99.90;;;;;;4976471;28;20113;-80
2023/10/10 00:38:58;;;;;;;29.10;15.57;;;16.30;99.90;;;;;;4950233;28;20049;-80
2023/10/10 00:41:26;;;;;;;35.65;21.95;;;16.40;99.90;;;;;;4966052;28;20030;-80
2023/10/10 00:43:52;;;;;;;21.27;12.98;;;16.40;99.90;;;;;;4965211;28;20098;-80
2023/10/10 00:46:17;;;;;;;22.75;14.05;;;16.20;99.90;;;;;;4945027;28;20446;-81
2023/10/10 00:48:44;;;;;;;34.85;20.40;;;16.40;99.90;;;;;;4961721;28;20475;-80
2023/10/10 00:51:11;;;;;;;39.25;23.70;;;16.30;99.90;;;;;;4984854;28;20057;-81
2023/10/10 00:53:40;;;;;;;32.13;19.38;;;16.20;99.90;;;;;;4946712;28;20030;-80
2023/10/10 00:56:06;;;;;;;27.83;17.40;;;16.20;99.90;;;;;;4966405;28;20042;-80
2023/10/10 00:58:36;;;;;;;42.97;28.95;;;16.20;99.90;;;;;;4977642;28;20853;-79
2023/10/10 01:01:10;;;;;;;32.38;20.02;;;16.20;99.90;;;;;;4983845;28;20554;-80
2023/10/10 01:03:40;;;;;;;22.75;15.15;;;16.30;99.90;;;;;;4978336;28;20399;-80
2023/10/10 01:06:13;;;;;;;29.42;19.63;;;16.30;99.90;;;;;;4965618;28;20034;-80
2023/10/10 01:08:53;;;;;;;32.72;20.48;;;16.30;99.90;;;;;;4982525;28;20057;-80
2023/10/10 01:11:19;;;;;;;39.10;24.77;;;16.30;99.90;;;;;;4960994;28;20114;-81
2023/10/10 01:13:45;;;;;;;30.50;20.02;;;16.30;99.90;;;;;;4962051;28;20023;-80
2023/10/10 01:16:12;;;;;;;25.10;15.88;;;16.30;99.90;;;;;;4957831;28;20899;-81
2023/10/10 01:18:39;;;;;;;24.83;14.57;;;16.30;99.90;;;;;;4979487;28;20042;-80
2023/10/10 01:21:05;;;;;;;22.15;15.35;;;16.40;99.90;;;;;;4993666;28;20038;-81
2023/10/10 01:23:33;;;;;;;26.75;18.73;;;16.40;99.90;;;;;;4977823;28;20045;-80
2023/10/10 01:26:06;;;;;;;24.88;16.38;;;16.30;99.90;;;;;;4947300;28;20442;-80
2023/10/10 01:28:34;;;;;;;24.67;15.98;;;16.30;99.90;;;;;;4947110;28;20125;-80
2023/10/10 01:31:10;;;;;;;30.48;19.13;;;16.30;99.90;;;;;;4961661;28;20028;-80
2023/10/10 01:33:36;;;;;;;29.25;18.98;;;16.50;99.90;;;;;;4964876;28;20311;-80
2023/10/10 01:36:11;;;;;;;41.03;26.42;;;16.40;99.90;;;;;;4962666;28;20054;-79
2023/10/10 01:38:44;;;;;;;32.72;23.05;;;16.30;99.90;;;;;;4962473;28;20030;-80
2023/10/10 01:41:15;;;;;;;30.63;19.40;;;16.30;99.90;;;;;;4983452;28;20086;-80
2023/10/10 01:43:46;;;;;;;29.25;20.13;;;16.30;99.90;;;;;;4952339;28;20430;-80
2023/10/10 01:46:19;;;;;;;40.92;26.08;;;16.40;99.90;;;;;;4958171;28;20053;-79
2023/10/10 01:48:45;;;;;;;28.17;17.23;;;16.30;99.90;;;;;;4978004;28;20060;-80
2023/10/10 01:51:14;;;;;;;24.67;16.17;;;16.20;99.90;;;;;;4977910;28;20046;-80
2023/10/10 01:53:40;;;;;;;30.42;17.77;;;16.20;99.90;;;;;;4964790;28;20045;-80
2023/10/10 01:56:11;;;;;;;35.08;21.95;;;16.20;99.90;;;;;;4970555;28;20038;-80
2023/10/10 01:58:37;;;;;;;26.33;16.60;;;16.20;99.90;;;;;;4962585;28;20046;-81
2023/10/10 02:01:19;;;;;;;30.13;20.13;;;16.10;99.90;;;;;;4961900;28;20084;-80
2023/10/10 02:03:46;;;;;;;24.35;16.92;;;16.10;99.90;;;;;;4978235;28;20038;-80
2023/10/10 02:06:14;;;;;;;27.33;17.52;;;16.10;99.90;;;;;;4977856;28;20501;-79
2023/10/10 02:08:44;;;;;;;23.90;15.45;;;16.10;99.90;;;;;;4971011;28;20819;-80
2023/10/10 02:11:12;;;;;;;25.08;16.83;;;16.10;99.90;;;;;;4961897;28;20049;-80
2023/10/10 02:13:39;;;;;;;27.70;18.20;;;16.10;99.90;;;;;;4982399;28;20410;-80
2023/10/10 02:16:06;;;;;;;23.33;15.80;;;16.10;99.90;;;;;;4966706;28;20106;-80
2023/10/10 02:18:44;;;;;;;24.23;13.95;;;16.00;99.90;;;;;;4946541;28;20038;-80
2023/10/10 02:21:16;;;;;;;34.85;23.48;;;16.00;99.90;;;;;;4982567;28;20479;-80
2023/10/10 02:23:46;;;;;;;31.63;20.23;;;16.00;99.90;;;;;;4949147;28;20042;-80
2023/10/10 02:26:23;;;;;;;26.17;16.08;;;16.00;99.90;;;;;;4966226;28;20482;-81
2023/10/10 02:29:16;;;;;;;36.78;24.70;;;16.00;99.90;;;;;;4980041;28;20065;-81
2023/10/10 02:31:40;;;;;;;30.58;21.15;;;16.00;99.90;;;;;;4981439;28;20034;-80
2023/10/10 02:34:10;;;;;;;44.25;28.25;;;15.90;99.90;;;;;;4982195;28;20422;-80
2023/10/10 02:36:35;;;;;;;31.48;18.50;;;15.90;99.90;;;;;;4979051;28;20089;-81
2023/10/10 02:41:48;;;;;;;31.20;20.70;;;16.00;99.90;;;;;;4966703;28;20130;-80
2023/10/10 02:44:26;;;;;;;45.13;28.63;;;16.00;99.90;;;;;;4979049;28;20045;-79
2023/10/10 02:46:53;;;;;;;24.83;16.10;;;16.00;99.90;;;;;;4969072;28;20038;-79
2023/10/10 02:51:58;;;;;;;34.72;24.10;;;15.90;99.90;;;;;;4966483;28;20038;-79
2023/10/10 02:56:51;;;;;;;48.17;31.85;;;15.80;99.90;;;;;;4979440;28;20058;-79
2023/10/10 02:59:22;;;;;;;37.25;22.55;;;15.90;99.90;;;;;;4947329;28;20035;-80
2023/10/10 03:04:22;;;;;;;45.40;29.58;;;15.70;99.90;;;;;;4992555;28;20058;-79
2023/10/10 03:06:48;;;;;;;33.95;23.05;;;15.70;99.90;;;;;;4962508;28;20037;-79
2023/10/10 03:09:28;;;;;;;31.92;20.58;;;15.60;99.90;;;;;;4979766;28;20550;-80
2023/10/10 03:12:03;;;;;;;40.90;28.23;;;15.50;99.90;;;;;;4980904;28;20778;-80
2023/10/10 03:14:32;;;;;;;35.10;22.88;;;15.50;99.90;;;;;;4976992;28;20096;-79
2023/10/10 03:17:06;;;;;;;43.53;27.95;;;15.40;99.90;;;;;;4943312;28;20034;-79
2023/10/10 03:19:39;;;;;;;32.95;23.20;;;15.40;99.90;;;;;;4981271;28;20107;-79
2023/10/10 03:27:49;;;;;;;40.60;25.23;;;15.30;99.90;;;;;;4977652;28;20113;-79
2023/10/10 03:30:19;;;;;;;47.85;30.92;;;15.20;99.90;;;;;;4968287;28;20066;-79
2023/10/10 03:33:00;;;;;;;35.85;23.77;;;15.10;99.90;;;;;;4966661;28;20050;-79
2023/10/10 03:35:52;;;;;;;35.83;22.75;;;15.10;99.90;;;;;;4978652;28;20038;-79
2023/10/10 03:39:24;;;;;;;36.95;24.40;;;15.10;99.90;;;;;;4964961;28;20034;-78
2023/10/10 05:25:41;;;;;;;88.63;50.78;;;13.90;99.90;;;;;;4983508;28;20744;-79
2023/10/10 05:28:09;;;;;;;63.60;37.83;;;13.90;99.90;;;;;;4962018;28;20073;-80
2023/10/10 05:30:42;;;;;;;53.60;30.98;;;13.90;99.90;;;;;;4976921;28;20030;-79
2023/10/10 05:33:08;;;;;;;62.60;37.25;;;14.00;99.90;;;;;;4944331;28;20038;-79
2023/10/10 05:35:36;;;;;;;53.10;32.05;;;14.10;99.90;;;;;;4976710;28;20437;-79
2023/10/10 05:38:04;;;;;;;65.10;39.08;;;14.00;99.90;;;;;;4974958;28;20418;-79
2023/10/10 05:40:33;;;;;;;52.13;28.13;;;14.10;99.90;;;;;;4960983;28;20431;-80
2023/10/10 05:43:02;;;;;;;45.63;27.30;;;14.00;99.90;;;;;;4956988;28;20027;-80
2023/10/10 05:45:29;;;;;;;59.35;37.78;;;14.00;99.90;;;;;;4964051;28;20048;-80
2023/10/10 05:47:54;;;;;;;66.22;38.65;;;14.10;99.90;;;;;;4977497;28;20038;-79
2023/10/10 05:50:22;;;;;;;62.65;39.28;;;14.10;99.90;;;;;;4975325;28;20522;-80
2023/10/10 05:52:48;;;;;;;56.40;37.35;;;14.00;99.90;;;;;;4973397;28;20041;-80
2023/10/10 05:55:14;;;;;;;80.88;47.10;;;14.00;99.90;;;;;;4960647;28;20766;-80
2023/10/10 05:57:40;;;;;;;67.00;39.72;;;13.80;99.90;;;;;;4976217;28;20033;-81
2023/10/10 06:00:16;;;;;;;67.38;37.40;;;13.80;99.90;;;;;;4964003;28;20026;-81
2023/10/10 06:02:42;;;;;;;57.60;36.58;;;13.80;99.90;;;;;;4943782;28;20041;-80
2023/10/10 06:05:12;;;;;;;80.03;46.33;;;13.80;99.90;;;;;;4970533;28;20121;-81
2023/10/10 06:07:42;;;;;;;79.65;45.50;;;13.90;99.90;;;;;;4975968;28;20042;-81
2023/10/10 06:10:14;;;;;;;89.68;50.05;;;13.80;99.90;;;;;;4968080;28;20060;-81
2023/10/10 06:12:40;;;;;;;83.22;48.75;;;13.70;99.90;;;;;;4963666;28;20077;-81
2023/10/10 06:15:06;;;;;;;51.70;28.88;;;13.70;99.90;;;;;;4978299;28;20931;-80
2023/10/10 06:17:35;;;;;;;83.55;48.08;;;13.70;99.90;;;;;;4978361;28;20387;-81
2023/10/10 06:20:01;;;;;;;66.22;38.75;;;13.80;99.90;;;;;;4977314;28;20033;-81
2023/10/10 06:22:29;;;;;;;80.22;46.92;;;13.80;99.90;;;;;;4936342;28;20426;-80
2023/10/10 06:24:58;;;;;;;55.13;32.15;;;13.80;99.90;;;;;;4966281;28;20073;-80
2023/10/10 06:27:32;;;;;;;66.03;40.33;;;13.90;99.90;;;;;;4946567;28;20037;-80
2023/10/10 06:29:58;;;;;;;50.63;32.63;;;14.00;99.90;;;;;;4961726;28;20049;-80
2023/10/10 06:32:25;;;;;;;50.20;28.48;;;14.00;99.90;;;;;;4970665;28;20653;-80
2023/10/10 06:35:13;;;;;;;56.22;32.33;;;14.10;99.90;;;;;;4959553;28;20045;-80
2023/10/10 06:37:38;;;;;;;47.88;28.70;;;14.20;99.90;;;;;;4962410;28;20038;-81
2023/10/10 06:40:08;;;;;;;40.45;25.77;;;14.20;99.90;;;;;;4959092;28;20092;-80
2023/10/10 06:42:34;;;;;;;40.47;24.52;;;14.20;99.90;;;;;;4975029;28;20526;-81
2023/10/10 06:45:07;;;;;;;37.08;22.77;;;14.30;99.90;;;;;;4959986;28;20026;-80
2023/10/10 06:47:33;;;;;;;58.85;36.78;;;14.20;99.90;;;;;;4970329;28;20921;-80
2023/10/10 06:50:00;;;;;;;66.75;39.00;;;14.10;99.90;;;;;;4977052;28;20464;-81
2023/10/10 06:52:27;;;;;;;71.93;42.17;;;14.00;99.90;;;;;;4958283;28;20117;-80
2023/10/10 06:54:56;;;;;;;72.78;41.88;;;14.10;99.90;;;;;;4961794;28;20501;-81
2023/10/10 06:57:35;;;;;;;83.50;43.35;;;14.10;99.90;;;;;;4978578;28;20100;-80
2023/10/10 07:00:17;;;;;;;76.32;41.70;;;14.10;99.90;;;;;;4943572;28;20506;-80
2023/10/10 07:02:48;;;;;;;76.50;42.53;;;14.10;99.90;;;;;;4975990;28;20525;-80
2023/10/10 07:05:15;;;;;;;85.40;44.67;;;14.20;99.90;;;;;;4978019;28;20513;-81
2023/10/10 07:07:41;;;;;;;71.55;42.38;;;14.20;99.90;;;;;;4973926;28;20038;-80
2023/10/10 07:10:09;;;;;;;80.10;42.47;;;14.20;99.90;;;;;;4974164;28;20034;-81
2023/10/10 07:12:35;;;;;;;71.95;42.00;;;14.20;99.90;;;;;;4970246;28;20443;-81
2023/10/10 07:15:06;;;;;;;89.68;41.50;;;14.30;99.90;;;;;;4971198;28;20069;-81
2023/10/10 07:17:32;;;;;;;68.65;40.00;;;14.30;99.90;;;;;;4956062;28;20034;-80
2023/10/10 07:22:27;;;;;;;60.17;32.60;;;14.40;99.90;;;;;;4956841;28;20073;-80
2023/10/10 07:25:06;;;;;;;67.85;38.58;;;14.50;99.90;;;;;;4971309;28;21444;-81
2023/10/10 07:27:32;;;;;;;49.13;28.35;;;14.60;99.90;;;;;;4972919;28;20026;-81
2023/10/10 07:29:58;;;;;;;69.85;37.08;;;14.70;99.90;;;;;;4975116;28;20048;-80
2023/10/10 07:32:29;;;;;;;61.13;34.72;;;14.60;99.90;;;;;;4973694;28;20041;-80
2023/10/10 07:34:55;;;;;;;65.30;32.58;;;14.70;99.90;;;;;;4977361;28;20030;-80
2023/10/10 07:37:22;;;;;;;47.63;27.20;;;14.80;99.90;;;;;;4941642;28;20368;-80
2023/10/10 07:40:18;;;;;;;53.55;31.77;;;14.90;99.90;;;;;;4949528;28;20491;-80
2023/10/10 07:42:50;;;;;;;40.13;24.52;;;15.10;99.90;;;;;;4969141;28;20045;-80
2023/10/10 07:45:26;;;;;;;35.60;20.42;;;15.20;99.90;;;;;;4963833;28;20022;-80
2023/10/10 07:50:34;;;;;;;38.65;21.40;;;15.40;99.90;;;;;;4975528;28;20045;-80
2023/10/10 07:53:03;;;;;;;29.85;17.75;;;15.60;99.90;;;;;;4972607;28;20436;-80
2023/10/10 07:55:33;;;;;;;30.60;16.90;;;15.80;99.90;;;;;;4941228;28;20034;-80
2023/10/10 07:58:06;;;;;;;31.00;16.20;;;15.90;99.90;;;;;;4970094;28;20030;-81
2023/10/10 08:00:39;;;;;;;24.52;15.00;;;16.00;99.90;;;;;;4959154;28;20038;-81
2023/10/10 08:03:12;;;;;;;29.23;15.45;;;16.10;99.90;;;;;;4942653;28;20569;-80
2023/10/10 08:05:38;;;;;;;51.35;17.08;;;16.20;99.90;;;;;;4972416;28;20047;-80
2023/10/10 08:08:05;;;;;;;38.92;16.25;;;16.40;99.90;;;;;;4970058;28;20509;-80
2023/10/10 08:10:39;;;;;;;25.40;15.15;;;16.60;99.90;;;;;;4960561;28;20122;-79
2023/10/10 08:13:10;;;;;;;24.77;14.73;;;16.70;99.90;;;;;;4956470;28;20034;-80
2023/10/10 08:15:56;;;;;;;27.55;14.27;;;16.90;99.90;;;;;;4975981;28;20030;-80
2023/10/10 08:18:49;;;;;;;28.00;13.57;;;17.00;99.90;;;;;;4958316;28;20384;-80
2023/10/10 08:21:15;;;;;;;32.13;16.20;;;17.20;99.90;;;;;;4954399;28;20076;-80
2023/10/10 08:23:47;;;;;;;25.42;14.50;;;17.30;99.90;;;;;;4971375;28;20487;-80
2023/10/10 08:26:17;;;;;;;21.50;13.10;;;17.40;99.90;;;;;;4973599;28;20129;-79
2023/10/10 08:28:46;;;;;;;22.77;12.18;;;17.60;99.90;;;;;;4968649;28;20042;-79
2023/10/10 08:31:13;;;;;;;24.40;11.32;;;17.60;99.90;;;;;;4955346;28;20487;-80
2023/10/10 08:33:46;;;;;;;25.83;11.95;;;17.80;99.90;;;;;;4958668;28;20026;-80
2023/10/10 08:36:24;;;;;;;24.17;11.35;;;17.80;99.90;;;;;;4977504;28;20037;-81
2023/10/10 08:38:54;;;;;;;21.13;10.23;;;17.90;99.90;;;;;;4961327;28;20034;-80
2023/10/10 08:41:31;;;;;;;18.30;10.90;;;18.10;99.90;;;;;;4950078;28;20033;-80
2023/10/10 08:43:58;;;;;;;20.30;10.57;;;18.10;99.90;;;;;;4962790;28;20052;-80
2023/10/10 08:46:26;;;;;;;22.95;11.02;;;18.20;99.90;;;;;;4965450;28;20030;-80
2023/10/10 08:48:52;;;;;;;14.85;9.13;;;18.20;99.90;;;;;;4964427;28;20110;-80
2023/10/10 08:51:17;;;;;;;14.30;8.15;;;18.20;99.90;;;;;;4973721;28;20514;-80
2023/10/10 08:53:43;;;;;;;13.20;7.18;;;18.30;99.90;;;;;;4979351;28;20038;-80
2023/10/10 08:56:09;;;;;;;13.55;8.52;;;18.50;99.90;;;;;;4957055;28;20033;-80
2023/10/10 08:58:35;;;;;;;16.85;8.77;;;18.70;99.90;;;;;;4959102;28;20030;-78
2023/10/10 09:01:02;;;;;;;13.95;7.03;;;18.80;99.90;;;;;;4961594;28;20502;-78
2023/10/10 09:03:28;;;;;;;11.93;5.95;;;18.90;99.90;;;;;;4973406;28;20391;-79
2023/10/10 09:05:55;;;;;;;21.15;7.70;;;19.00;99.90;;;;;;4978551;28;20034;-78
2023/10/10 09:08:26;;;;;;;18.92;8.13;;;19.00;99.90;;;;;;4976286;28;20051;-78
2023/10/10 09:10:58;;;;;;;13.40;7.43;;;18.90;99.90;;;;;;4975458;28;20054;-78
2023/10/10 09:13:25;;;;;;;23.15;8.35;;;19.10;99.90;;;;;;4962271;28;20443;-78
2023/10/10 09:15:54;;;;;;;15.18;7.53;;;19.20;99.90;;;;;;4976945;28;20041;-78
2023/10/10 09:18:23;;;;;;;11.13;6.45;;;19.50;99.90;;;;;;4966615;28;20441;-79
2023/10/10 09:20:49;;;;;;;12.18;6.30;;;19.70;99.90;;;;;;4968900;28;20065;-79
2023/10/10 09:23:28;;;;;;;13.93;6.70;;;19.70;99.90;;;;;;4966387;28;20026;-79
2023/10/10 09:26:19;;;;;;;12.02;6.88;;;19.80;99.90;;;;;;4961518;28;20038;-79
2023/10/10 09:29:03;;;;;;;12.88;6.30;;;20.00;99.90;;;;;;4963033;28;20141;-79
2023/10/10 09:31:31;;;;;;;9.75;5.03;;;20.40;99.90;;;;;;4978424;28;20079;-79
2023/10/10 09:34:06;;;;;;;14.80;6.80;;;20.60;99.90;;;;;;4959837;28;20542;-79
2023/10/10 09:36:38;;;;;;;13.45;6.25;;;20.60;99.90;;;;;;4977500;28;20758;-79
2023/10/10 09:39:14;;;;;;;12.32;5.93;;;20.60;99.90;;;;;;4980948;28;20474;-78
2023/10/10 09:44:49;;;;;;;9.57;5.63;;;20.90;99.90;;;;;;4981680;28;20035;-79
2023/10/10 09:49:46;;;;;;;9.70;4.97;;;21.00;99.90;;;;;;4977734;28;20077;-78
2023/10/10 09:55:03;;;;;;;10.47;4.90;;;21.20;99.90;;;;;;4984630;28;20089;-80
2023/10/10 09:57:32;;;;;;;11.50;5.50;;;21.30;99.90;;;;;;4980773;28;20041;-79
2023/10/10 09:59:58;;;;;;;8.35;4.25;;;21.20;99.90;;;;;;4961613;28;20034;-79
2023/10/10 10:02:40;;;;;;;6.72;4.47;;;21.40;99.90;;;;;;4965906;28;20407;-79
2023/10/10 10:05:13;;;;;;;11.00;5.75;;;21.50;99.90;;;;;;4978722;28;20034;-79
2023/10/10 10:07:56;;;;;;;9.63;4.63;;;21.50;99.90;;;;;;4956503;28;20925;-79
2023/10/10 10:10:49;;;;;;;9.25;3.97;;;21.60;99.90;;;;;;4979581;28;20052;-78
2023/10/10 10:13:37;;;;;;;10.57;4.78;;;21.60;99.90;;;;;;4992906;28;20038;-79
2023/10/10 10:16:44;;;;;;;8.02;4.88;;;21.70;99.50;;;;;;4969626;28;20042;-79
2023/10/10 10:19:14;;;;;;;;;;;22.00;98.80;;;;;;4977017;28;20434;-79
2023/10/10 10:21:52;;;;;;;11.00;4.60;;;22.20;98.30;;;;;;4959763;28;20347;-79
2023/10/10 10:24:32;;;;;;;9.50;3.67;;;22.20;97.80;;;;;;4965064;28;20026;-79
2023/10/10 10:32:55;;;;;;;12.65;4.50;;;22.10;97.30;;;;;;4978500;28;20065;-80
2023/10/10 10:35:22;;;;;;;9.02;3.60;;;22.00;97.30;;;;;;4959848;28;20084;-80
2023/10/10 10:37:59;;;;;;;8.52;4.95;;;22.30;96.80;;;;;;4942204;28;20056;-80
2023/10/10 10:40:50;;;;;;;7.85;3.60;;;22.30;97.50;;;;;;4960719;28;20030;-79
2023/10/10 10:43:24;;;;;;;8.02;4.25;;;22.30;96.60;;;;;;4978998;28;20731;-80
2023/10/10 10:46:07;;;;;;;9.40;4.20;;;22.50;97.00;;;;;;4961036;28;20038;-80
2023/10/10 10:48:34;;;;;;;7.43;3.63;;;22.50;96.60;;;;;;4980842;28;20509;-80
2023/10/10 10:51:27;;;;;;;8.18;4.63;;;22.80;96.30;;;;;;4960863;28;20421;-80
2023/10/10 10:53:58;;;;;;;12.30;5.07;;;22.60;96.90;;;;;;4959692;28;20038;-80
2023/10/10 11:01:27;;;;;;;11.82;5.35;;;22.60;96.00;;;;;;4980218;28;20027;-79
2023/10/10 11:03:54;;;;;;;7.15;4.30;;;23.10;95.40;;;;;;4973811;28;20049;-80
2023/10/10 11:06:20;;;;;;;8.35;3.80;;;23.20;94.20;;;;;;4974150;28;20042;-80
2023/10/10 11:12:02;;;;;;;8.05;3.10;;;23.10;95.60;;;;;;4979240;28;20387;-80
2023/10/10 11:16:46;;;;;;;;;;;23.50;93.70;;;;;;4977784;28;20032;-80
2023/10/10 11:21:53;;;;;;;;;;;23.30;93.80;;;;;;4974866;28;20133;-80
2023/10/10 11:24:23;;;;;;;8.02;3.10;;;23.70;93.80;;;;;;4974382;28;19936;-80
2023/10/10 11:27:14;;;;;;;9.20;3.22;;;23.70;93.40;;;;;;4952056;28;20034;-81
2023/10/10 11:29:47;;;;;;;6.57;4.00;;;23.90;93.50;;;;;;4982336;28;20073;-81
2023/10/10 11:32:25;;;;;;;7.35;4.05;;;23.80;94.10;;;;;;4961484;28;20355;-80
2023/10/10 11:35:17;;;;;;;7.68;3.75;;;24.00;93.70;;;;;;4974867;28;20034;-80
2023/10/10 11:37:49;;;;;;;7.38;3.03;;;24.10;93.90;;;;;;4968587;28;20388;-80
2023/10/10 11:43:03;;;;;;;8.60;3.70;;;24.30;92.70;;;;;;4980416;28;20048;-81
2023/10/10 11:45:29;;;;;;;;;;;24.50;92.00;;;;;;4943533;28;20449;-80
2023/10/10 11:48:05;;;;;;;5.95;3.53;;;24.80;92.10;;;;;;4975721;28;19922;-80
2023/10/10 11:50:49;;;;;;;;;;;24.50;92.50;;;;;;4970884;28;20092;-80
2023/10/10 11:53:19;;;;;;;9.00;4.32;;;24.70;91.50;;;;;;4987157;28;19913;-80
2023/10/10 11:55:44;;;;;;;9.45;4.20;;;24.90;91.60;;;;;;4957674;28;20530;-81
2023/10/10 11:58:16;;;;;;;9.98;3.55;;;24.90;92.70;;;;;;4970486;28;20026;-81
2023/10/10 12:00:43;;;;;;;7.68;2.92;;;24.80;92.90;;;;;;4969505;28;20465;-80
2023/10/10 12:03:19;;;;;;;8.93;4.50;;;25.00;91.80;;;;;;4976374;28;20122;-81
2023/10/10 12:05:48;;;;;;;7.45;4.00;;;25.30;91.40;;;;;;4973130;28;20150;-80
2023/10/10 12:08:15;;;;;;;7.85;3.90;;;25.50;90.10;;;;;;4956553;28;20042;-80
2023/10/10 12:10:47;;;;;;;6.75;4.13;;;25.50;89.80;;;;;;4970410;28;20100;-81
2023/10/10 12:13:25;;;;;;;10.20;3.60;;;25.40;89.60;;;;;;4970462;28;20128;-80
2023/10/10 12:15:51;;;;;;;8.65;3.28;;;25.60;88.70;;;;;;4972663;28;20450;-80
2023/10/10 12:18:16;;;;;;;6.35;4.38;;;25.60;89.30;;;;;;4971781;28;20027;-80
2023/10/10 12:20:45;;;;;;;7.10;4.18;;;25.80;87.90;;;;;;4962991;28;20139;-80
2023/10/10 12:23:13;;;;;;;7.90;4.57;;;25.70;87.80;;;;;;4980934;28;20372;-80
2023/10/10 12:25:42;;;;;;;7.45;3.95;;;25.50;89.70;;;;;;4977621;28;20617;-81
2023/10/10 12:28:09;;;;;;;9.52;4.60;;;25.50;90.40;;;;;;4975478;28;20034;-81
2023/10/10 12:30:40;;;;;;;12.27;4.80;;;25.50;90.10;;;;;;4974738;28;20501;-80
2023/10/10 12:33:07;;;;;;;8.80;4.03;;;25.50;89.70;;;;;;4942449;28;20375;-80
2023/10/10 12:35:32;;;;;;;8.95;4.25;;;25.60;90.40;;;;;;4960696;28;20034;-81
2023/10/10 12:38:01;;;;;;;14.65;4.38;;;25.80;89.80;;;;;;4976200;28;20033;-80
2023/10/10 12:40:28;;;;;;;7.40;4.18;;;26.10;87.00;;;;;;4976300;28;20398;-80
2023/10/10 12:42:53;;;;;;;7.88;4.05;;;26.00;88.20;;;;;;4959982;28;20495;-80
2023/10/10 12:45:19;;;;;;;11.57;4.18;;;25.70;90.00;;;;;;4948025;28;20037;-80
2023/10/10 12:47:45;;;;;;;10.25;3.65;;;26.20;89.40;;;;;;4946434;28;20429;-80
2023/10/10 12:50:14;;;;;;;8.30;4.43;;;25.90;90.10;;;;;;4977045;28;20041;-80
2023/10/10 12:52:46;;;;;;;9.82;5.05;;;25.90;89.10;;;;;;4975125;28;20394;-80
2023/10/10 12:55:12;;;;;;;5.90;3.75;;;26.10;88.80;;;;;;4959308;28;20121;-81
2023/10/10 12:57:38;;;;;;;8.75;4.13;;;25.90;90.40;;;;;;4974302;28;20391;-80
2023/10/10 13:03:00;;;;;;;8.13;4.35;;;26.50;88.10;;;;;;4969898;28;20989;-80
2023/10/10 13:05:29;;;;;;;9.00;5.28;;;26.60;87.20;;;;;;4960943;28;20038;-80
2023/10/10 13:07:58;;;;;;;14.52;5.20;;;26.60;87.20;;;;;;4974545;28;20038;-80
2023/10/10 13:10:27;;;;;;;9.25;4.10;;;26.40;89.00;;;;;;4965468;28;20360;-80
2023/10/10 13:12:53;;;;;;;14.60;5.57;;;26.50;89.30;;;;;;4968236;28;20034;-80
2023/10/10 13:15:19;;;;;;;10.32;4.47;;;26.60;88.30;;;;;;4975920;28;20084;-80
2023/10/10 13:17:50;;;;;;;14.18;4.38;;;26.60;89.00;;;;;;4957893;28;20446;-80
2023/10/10 13:20:17;;;;;;;15.13;4.68;;;26.80;86.50;;;;;;4977707;28;20495;-81
2023/10/10 13:22:43;;;;;;;8.68;4.50;;;26.80;86.30;;;;;;4972849;28;20506;-81
2023/10/10 13:25:10;;;;;;;8.60;4.13;;;26.90;85.60;;;;;;4960923;28;20087;-81
2023/10/10 13:27:36;;;;;;;8.73;3.72;;;26.60;88.40;;;;;;4957691;28;20125;-81
2023/10/10 13:30:02;;;;;;;9.63;5.05;;;27.00;85.60;;;;;;4960882;28;20045;-81
2023/10/10 13:32:28;;;;;;;11.93;4.60;;;27.10;86.20;;;;;;4974071;28;20035;-81
2023/10/10 13:34:53;;;;;;;10.10;4.60;;;27.00;84.60;;;;;;4973971;28;20085;-81
2023/10/10 13:37:19;;;;;;;5.78;3.55;;;26.70;87.60;;;;;;4961984;28;20509;-81
2023/10/10 13:39:47;;;;;;;12.40;4.65;;;27.00;84.50;;;;;;4956426;28;20388;-80
2023/10/10 13:42:17;;;;;;;8.57;3.85;;;27.10;83.40;;;;;;4972847;28;20037;-81
2023/10/10 13:44:43;;;;;;;8.95;3.78;;;27.10;83.00;;;;;;4960201;28;20041;-81
2023/10/10 13:47:08;;;;;;;9.63;5.40;;;27.20;83.60;;;;;;4977620;28;20081;-81
2023/10/10 13:49:44;;;;;;;10.38;5.03;;;26.90;83.40;;;;;;4976100;28;20034;-81
2023/10/10 13:52:11;;;;;;;8.30;4.30;;;27.10;84.40;;;;;;4965380;28;20418;-81
2023/10/10 13:54:37;;;;;;;9.77;4.63;;;27.10;83.60;;;;;;4961645;28;20053;-81
2023/10/10 13:57:03;;;;;;;9.07;4.35;;;27.00;83.60;;;;;;4960953;28;20088;-81
2023/10/10 13:59:28;;;;;;;10.73;5.05;;;27.10;84.70;;;;;;4977714;28;20030;-81
2023/10/10 14:01:55;;;;;;;10.85;4.40;;;27.10;83.50;;;;;;4977218;28;20063;-81
2023/10/10 14:04:26;;;;;;;9.10;4.93;;;27.10;84.00;;;;;;4978700;28;20524;-81
2023/10/10 14:06:53;;;;;;;7.18;3.97;;;27.00;83.40;;;;;;4973466;28;20037;-81
2023/10/10 14:09:23;;;;;;;7.75;3.95;;;27.20;85.50;;;;;;4957138;28;20499;-81
2023/10/10 14:12:03;;;;;;;8.43;4.00;;;27.00;86.20;;;;;;4975679;28;20034;-81
2023/10/10 14:14:29;;;;;;;13.88;4.32;;;26.90;87.40;;;;;;4978309;28;20045;-81
2023/10/10 14:16:55;;;;;;;14.48;5.28;;;27.10;82.70;;;;;;4976688;28;20493;-81
2023/10/10 14:19:23;;;;;;;11.15;4.47;;;26.80;83.60;;;;;;4976180;28;20026;-81
2023/10/10 14:21:52;;;;;;;8.85;4.53;;;26.90;85.50;;;;;;4974260;28;20018;-80
2023/10/10 14:24:18;;;;;;;7.53;4.65;;;27.50;83.80;;;;;;4976634;28;20072;-81
2023/10/10 14:26:44;;;;;;;9.10;4.43;;;27.30;84.50;;;;;;4961463;28;20312;-80
2023/10/10 14:29:12;;;;;;;14.60;4.93;;;27.50;84.10;;;;;;4957765;28;20497;-81
2023/10/10 14:31:44;;;;;;;6.18;3.85;;;27.20;82.90;;;;;;4976784;28;20034;-80
2023/10/10 14:34:20;;;;;;;6.82;3.45;;;26.80;84.20;;;;;;4947488;28;20034;-80
2023/10/10 14:36:46;;;;;;;11.65;4.13;;;26.80;86.10;;;;;;4976559;28;20489;-80
2023/10/10 14:39:36;;;;;;;8.48;4.20;;;26.90;82.20;;;;;;4975762;28;20027;-80
2023/10/10 14:41:58;;;;;;;8.60;3.60;;;27.10;82.70;;;;;;4975121;28;20513;-79
2023/10/10 14:44:28;;;;;;;6.60;3.78;;;27.10;79.40;;;;;;4975686;28;20034;-80
2023/10/10 14:47:04;;;;;;;9.80;4.28;;;26.90;79.50;;;;;;4959811;28;20031;-80
2023/10/10 14:49:29;;;;;;;10.57;4.97;;;26.90;79.40;;;;;;4979472;28;20077;-81
2023/10/10 14:52:03;;;;;;;6.20;3.75;;;27.10;80.00;;;;;;4976046;28;20058;-80
2023/10/10 14:54:28;;;;;;;8.05;3.75;;;26.90;79.50;;;;;;4977371;28;20033;-80
2023/10/10 14:56:54;;;;;;;12.27;4.18;;;26.80;78.80;;;;;;4955282;28;20521;-80
2023/10/10 14:59:24;;;;;;;8.05;3.90;;;26.80;79.90;;;;;;4958293;28;20030;-80
2023/10/10 15:01:50;;;;;;;9.65;3.92;;;26.80;80.20;;;;;;4973643;28;20041;-80
2023/10/10 15:04:17;;;;;;;10.68;3.88;;;26.70;81.20;;;;;;4958714;28;20514;-81
2023/10/10 15:06:43;;;;;;;8.90;4.57;;;26.70;80.20;;;;;;4973530;28;20038;-80
2023/10/10 15:09:13;;;;;;;6.95;3.95;;;26.70;81.00;;;;;;4972590;28;20038;-80
2023/10/10 15:11:41;;;;;;;6.15;3.75;;;26.60;81.60;;;;;;4957598;28;20030;-82
2023/10/10 15:14:07;;;;;;;9.25;3.80;;;26.30;83.30;;;;;;4972277;28;20034;-80
2023/10/10 15:16:35;;;;;;;11.18;4.55;;;26.20;82.00;;;;;;4956679;28;20080;-81
2023/10/10 15:19:06;;;;;;;13.43;4.93;;;26.40;79.90;;;;;;4958283;28;20034;-81
2023/10/10 15:21:32;;;;;;;8.10;4.03;;;26.40;79.60;;;;;;4976599;28;20128;-81
2023/10/10 15:24:14;;;;;;;8.15;3.45;;;26.20;81.40;;;;;;4974244;28;20062;-80
2023/10/10 15:26:40;;;;;;;8.50;4.03;;;26.40;80.70;;;;;;4968970;28;20034;-81
2023/10/10 15:29:10;;;;;;;8.77;4.05;;;26.50;80.10;;;;;;4954031;28;20042;-81
2023/10/10 15:31:36;;;;;;;14.30;4.38;;;26.30;79.70;;;;;;4970674;28;20117;-81